createdAt,value
2019-01-20T00:04:40.679Z,-4.30
2019-01-20T00:09:45.711Z,-4.40
2019-01-20T00:14:50.727Z,-4.40
2019-01-20T00:19:55.795Z,-4.50
2019-01-20T00:25:00.809Z,-4.50
2019-01-20T00:30:07.858Z,-4.50
2019-01-20T00:35:12.480Z,-4.50
2019-01-20T00:40:17.920Z,-4.40
2019-01-20T00:45:22.950Z,-4.40
2019-01-20T00:50:27.959Z,-4.50
2019-01-20T00:55:33.008Z,-4.50
2019-01-20T01:00:38.028Z,-4.60
2019-01-20T01:05:43.040Z,-4.60
2019-01-20T01:10:48.090Z,-4.60
2019-01-20T01:15:53.096Z,-4.50
2019-01-20T01:20:58.168Z,-4.60
2019-01-20T01:26:03.204Z,-4.60
2019-01-20T01:31:08.237Z,-4.60
2019-01-20T01:36:13.294Z,-4.60
2019-01-20T01:41:18.323Z,-4.60
2019-01-20T01:46:23.344Z,-4.60
2019-01-20T01:51:28.364Z,-4.60
2019-01-20T01:56:33.391Z,-4.50
2019-01-20T02:01:38.425Z,-4.50
2019-01-20T02:06:43.486Z,-4.60
2019-01-20T02:11:48.470Z,-4.70
2019-01-20T02:16:53.532Z,-4.70
2019-01-20T02:21:59.009Z,-4.70
2019-01-20T02:27:04.289Z,-4.80
2019-01-20T02:32:09.324Z,-4.80
2019-01-20T02:37:14.336Z,-4.80
2019-01-20T02:42:19.424Z,-4.80
2019-01-20T02:47:26.016Z,-4.90
2019-01-20T02:52:31.092Z,-4.90
2019-01-20T02:57:36.386Z,-5.00
2019-01-20T03:02:41.412Z,-5.10
2019-01-20T03:07:46.540Z,-5.10
2019-01-20T03:12:51.572Z,-5.20
2019-01-20T03:17:56.599Z,-5.10
2019-01-20T03:23:01.649Z,-5.20
2019-01-20T03:28:06.698Z,-5.20
2019-01-20T03:33:11.751Z,-5.20
2019-01-20T03:38:16.979Z,-5.20
2019-01-20T03:43:22.001Z,-5.20
2019-01-20T03:48:27.022Z,-5.20
2019-01-20T03:53:32.044Z,-5.20
2019-01-20T03:58:37.171Z,-5.20
2019-01-20T04:03:42.186Z,-5.10
2019-01-20T04:08:47.201Z,-5.10
2019-01-20T04:13:52.242Z,-5.10
2019-01-20T04:18:57.271Z,-5.10
2019-01-20T04:24:02.323Z,-5.10
2019-01-20T04:29:07.340Z,-5.10
2019-01-20T04:34:12.364Z,-5.00
2019-01-20T04:39:17.372Z,-5.00
2019-01-20T04:44:22.392Z,-4.90
2019-01-20T04:49:27.403Z,-4.90
2019-01-20T04:54:32.425Z,-4.90
2019-01-20T04:59:37.456Z,-4.90
2019-01-20T05:04:42.469Z,-4.90
2019-01-20T05:09:47.492Z,-4.90
2019-01-20T05:14:52.524Z,-5.00
2019-01-20T05:19:57.575Z,-5.00
2019-01-20T05:25:02.655Z,-5.00
2019-01-20T05:30:10.951Z,-5.00
2019-01-20T05:35:16.284Z,-5.10
2019-01-20T05:40:21.826Z,-5.00
2019-01-20T05:45:26.985Z,-5.00
2019-01-20T05:50:31.996Z,-5.10
2019-01-20T05:55:37.025Z,-5.10
2019-01-20T06:00:42.056Z,-5.20
2019-01-20T06:05:47.131Z,-5.10
2019-01-20T06:10:52.156Z,-5.10
2019-01-20T06:15:57.199Z,-5.10
2019-01-20T06:21:02.203Z,-5.10
2019-01-20T06:26:07.285Z,-5.10
2019-01-20T06:31:12.307Z,-5.10
2019-01-20T06:36:17.335Z,-5.10
2019-01-20T06:41:22.356Z,-5.10
2019-01-20T06:46:27.387Z,-5.10
2019-01-20T06:51:32.413Z,-5.20
2019-01-20T06:56:37.419Z,-5.20
2019-01-20T07:01:42.452Z,-5.20
2019-01-20T07:06:47.473Z,-5.10
2019-01-20T07:11:52.500Z,-5.20
2019-01-20T07:16:57.504Z,-5.20
2019-01-20T07:22:02.583Z,-5.00
2019-01-20T07:27:07.600Z,-4.90
2019-01-20T07:32:12.874Z,-4.70
2019-01-20T07:37:19.234Z,-4.60
2019-01-20T07:42:24.363Z,-4.50
2019-01-20T07:47:29.657Z,-4.50
2019-01-20T07:52:34.668Z,-4.30
2019-01-20T07:57:39.780Z,-4.40
2019-01-20T08:02:44.826Z,-4.30
2019-01-20T08:07:50.009Z,-4.20
2019-01-20T08:12:55.340Z,-4.20
2019-01-20T08:18:00.593Z,-4.10
2019-01-20T08:23:05.649Z,-4.00
2019-01-20T08:28:10.671Z,-3.90
2019-01-20T08:33:15.683Z,-3.70
2019-01-20T08:38:20.729Z,-3.60
2019-01-20T08:43:31.698Z,-3.50
2019-01-20T08:48:32.829Z,-3.30
2019-01-20T08:53:37.832Z,-3.10
2019-01-20T08:58:42.860Z,-2.90
2019-01-20T09:03:47.876Z,-2.70
2019-01-20T09:08:52.891Z,-2.50
2019-01-20T09:13:57.912Z,-2.40
2019-01-20T09:19:02.932Z,-2.30
2019-01-20T09:24:08.000Z,-2.20
2019-01-20T09:29:13.028Z,-2.20
2019-01-20T09:34:18.078Z,-2.10
2019-01-20T09:39:23.100Z,-2.00
2019-01-20T09:44:28.122Z,-2.00
2019-01-20T09:49:33.150Z,-1.90
2019-01-20T09:54:38.164Z,-1.90
2019-01-20T09:59:43.179Z,-1.80
2019-01-20T10:04:48.208Z,-1.80
2019-01-20T10:09:53.234Z,-1.70
2019-01-20T10:14:58.641Z,-1.60
2019-01-20T10:20:05.337Z,-1.50
2019-01-20T10:25:15.026Z,-1.40
2019-01-20T10:30:24.062Z,-1.30
2019-01-20T10:35:38.304Z,-1.20
2019-01-20T10:40:43.316Z,-1.10
2019-01-20T10:45:48.327Z,-0.90
2019-01-20T10:50:53.351Z,-0.70
2019-01-20T10:55:58.463Z,-0.50
2019-01-20T11:01:03.498Z,-0.40
2019-01-20T11:06:08.752Z,-0.30
2019-01-20T11:11:13.772Z,-0.20
2019-01-20T11:16:18.780Z,-0.20
2019-01-20T11:21:23.805Z,-0.20
2019-01-20T11:26:29.156Z,-0.10
2019-01-20T11:31:34.201Z,0.00
2019-01-20T11:36:39.216Z,0.20
2019-01-20T11:41:44.326Z,0.40
2019-01-20T11:46:49.295Z,0.50
2019-01-20T11:51:54.528Z,0.60
2019-01-20T11:56:59.541Z,0.70
2019-01-20T12:02:05.168Z,0.90
2019-01-20T12:07:10.424Z,0.90
2019-01-20T12:12:15.422Z,1.00
2019-01-20T12:17:20.549Z,1.00
2019-01-20T12:22:25.551Z,1.00
2019-01-20T12:27:42.486Z,1.10
2019-01-20T12:32:47.557Z,1.20
2019-01-20T12:37:52.742Z,1.30
2019-01-20T12:42:57.748Z,1.40
2019-01-20T12:48:02.872Z,1.50
2019-01-20T12:53:07.907Z,1.50
2019-01-20T12:58:13.338Z,1.60
2019-01-20T13:03:18.337Z,1.50
2019-01-20T13:08:23.352Z,1.50
2019-01-20T13:13:28.356Z,1.60
2019-01-20T13:18:33.368Z,1.80
2019-01-20T13:23:38.372Z,1.70
2019-01-20T13:28:43.415Z,1.70
2019-01-20T13:33:48.427Z,1.70
2019-01-20T13:38:53.463Z,1.80
2019-01-20T13:43:59.535Z,1.80
2019-01-20T13:49:04.734Z,1.80
2019-01-20T13:54:09.726Z,1.70
2019-01-20T13:59:14.743Z,1.60
2019-01-20T14:04:19.807Z,1.40
2019-01-20T14:09:24.808Z,1.30
2019-01-20T14:14:29.832Z,1.10
2019-01-20T14:19:34.869Z,1.10
2019-01-20T14:24:40.092Z,0.90
2019-01-20T14:29:45.164Z,0.90
2019-01-20T14:34:50.924Z,0.80
2019-01-20T14:39:55.933Z,0.60
2019-01-20T14:45:01.538Z,0.30
2019-01-20T14:50:09.297Z,0.10
2019-01-20T14:55:14.762Z,-0.10
2019-01-20T15:00:25.980Z,-0.30
2019-01-20T15:05:32.747Z,-0.50
2019-01-20T15:10:37.754Z,-0.60
2019-01-20T15:15:42.734Z,-0.70
2019-01-20T15:20:47.709Z,-0.80
2019-01-20T15:25:53.022Z,-0.90
2019-01-20T15:30:58.011Z,-1.10
2019-01-20T15:36:02.983Z,-1.30
2019-01-20T15:41:08.090Z,-1.50
2019-01-20T15:46:13.038Z,-1.60
2019-01-20T15:51:18.007Z,-1.70
2019-01-20T15:56:22.976Z,-1.80
2019-01-20T16:01:27.937Z,-1.80
2019-01-20T16:06:32.896Z,-1.80
2019-01-20T16:11:37.969Z,-1.80
2019-01-20T16:16:43.235Z,-1.90
2019-01-20T16:21:48.205Z,-1.90
2019-01-20T16:26:53.443Z,-2.10
2019-01-20T16:31:58.409Z,-2.30
2019-01-20T16:37:03.430Z,-2.50
2019-01-20T16:42:08.391Z,-2.60
2019-01-20T16:47:13.426Z,-2.60
2019-01-20T16:52:18.424Z,-2.00
2019-01-20T16:57:23.669Z,-1.60
2019-01-20T17:02:28.657Z,-1.80
2019-01-20T17:07:33.744Z,-2.20
2019-01-20T17:12:38.704Z,-2.50
2019-01-20T17:17:43.902Z,-2.80
2019-01-20T17:22:49.825Z,-2.90
2019-01-20T17:27:54.916Z,-3.10
2019-01-20T17:33:01.376Z,-3.30
2019-01-20T17:38:27.004Z,-3.50
2019-01-20T17:43:31.980Z,-3.60
2019-01-20T17:48:37.008Z,-3.60
2019-01-20T17:53:41.995Z,-3.80
2019-01-20T17:58:47.003Z,-3.80
2019-01-20T18:03:51.995Z,-3.90
2019-01-20T18:08:56.990Z,-3.90
2019-01-20T18:14:01.960Z,-3.70
2019-01-20T18:19:06.947Z,-3.60
2019-01-20T18:24:11.984Z,-3.40
2019-01-20T18:29:17.024Z,-3.40
2019-01-20T18:34:22.009Z,-3.50
2019-01-20T18:39:27.018Z,-3.70
2019-01-20T18:44:32.005Z,-3.90
2019-01-20T18:49:36.984Z,-4.00
2019-01-20T18:54:41.961Z,-4.10
2019-01-20T18:59:46.935Z,-4.30
2019-01-20T19:04:53.125Z,-4.40
2019-01-20T19:09:58.123Z,-4.40
2019-01-20T19:15:03.111Z,-4.40
2019-01-20T19:20:09.980Z,-4.30
2019-01-20T19:25:15.358Z,-4.20
2019-01-20T19:30:23.020Z,-4.20
2019-01-20T19:35:28.474Z,-4.20
2019-01-20T19:40:33.444Z,-4.10
2019-01-20T19:45:38.417Z,-4.00
2019-01-20T19:50:43.406Z,-4.10
2019-01-20T19:55:48.441Z,-4.10
2019-01-20T20:00:53.421Z,-4.10
2019-01-20T20:05:58.583Z,-4.10
2019-01-20T20:11:03.571Z,-4.10
2019-01-20T20:16:08.578Z,-4.10
2019-01-20T20:21:13.889Z,-4.00
2019-01-20T20:26:18.868Z,-4.00
2019-01-20T20:31:23.891Z,-4.10
2019-01-20T20:36:28.881Z,-4.10
2019-01-20T20:41:33.899Z,-4.20
2019-01-20T20:46:38.880Z,-4.30
2019-01-20T20:51:43.870Z,-4.20
2019-01-20T20:56:48.874Z,-4.20
2019-01-20T21:01:53.945Z,-4.30
2019-01-20T21:06:58.939Z,-4.50
2019-01-20T21:12:04.206Z,-4.70
2019-01-20T21:17:09.228Z,-4.80
2019-01-20T21:22:14.216Z,-4.90
2019-01-20T21:27:19.241Z,-5.10
2019-01-20T21:32:24.232Z,-5.10
2019-01-20T21:37:29.467Z,-5.20
2019-01-20T21:42:34.450Z,-5.30
2019-01-20T21:47:39.575Z,-5.30
2019-01-20T21:52:44.587Z,-5.30
2019-01-20T21:57:49.769Z,-5.30
2019-01-20T22:02:54.759Z,-5.20
2019-01-20T22:07:59.751Z,-5.20
2019-01-20T22:13:04.733Z,-5.20
2019-01-20T22:18:09.713Z,-5.20
2019-01-20T22:23:14.768Z,-5.30
2019-01-20T22:28:19.787Z,-5.30
2019-01-20T22:33:25.191Z,-5.40
2019-01-20T22:38:30.245Z,-5.40
2019-01-20T22:43:35.179Z,-5.50
2019-01-20T22:48:40.164Z,-5.50
2019-01-20T22:53:45.162Z,-5.60
2019-01-20T22:58:51.911Z,-5.50
2019-01-20T23:03:56.927Z,-5.60
2019-01-20T23:09:06.519Z,-5.40
2019-01-20T23:14:08.933Z,-5.50
2019-01-20T23:19:13.931Z,-5.60
2019-01-20T23:24:18.917Z,-5.70
2019-01-20T23:29:23.948Z,-5.80
2019-01-20T23:34:28.913Z,-5.80
2019-01-20T23:39:33.880Z,-5.70
2019-01-20T23:44:38.884Z,-5.70
2019-01-20T23:49:43.879Z,-5.80
2019-01-20T23:54:48.860Z,-5.80
2019-01-20T23:59:53.851Z,-5.90
